Terminal Aerodrome Forecast
Issued by NWS Buffalo, NY

Home | Current Version | Previous Version | Text Only | Print | Product List | Glossary On
Versions: 1 2 3 4 5 6 7 8 9 10 11 12 13 14 15 16 17 18 19 20 21 22 23 24 25
000
FTUS41 KBUF 240900 AAA
TAFBUF
TAF AMD
KBUF 240906Z 2409/2506 02007KT P6SM BKN060
     FM241600 35009KT P6SM SCT050 SCT250
     FM242300 31005KT P6SM SCT250
     FM250200 VRB03KT P6SM SKC=

USA.gov is the U.S. government's official web portal to all federal, state and local government web resources and services.